Time;durP1;ratioP1;P1;durP2;ratioP2;P2;SDS_P1;SDS_P2;PMS_P1;PMS_P2;Temp;Humidity;BMP_temperature;BMP_pressure;BME280_temperature;BME280_humidity;BME280_pressure;Samples;Min_cycle;Max_cycle;Signal;HPM_P1;HPM_P2
2023/02/13 00:00:48;;;;;;;60.20;32.13;;;3.50;99.90;;;;;;4939436;28;20827;-69
2023/02/13 00:03:15;;;;;;;57.88;32.20;;;3.60;99.90;;;;;;4973050;28;20039;-69
2023/02/13 00:05:43;;;;;;;60.60;32.38;;;3.50;99.90;;;;;;4972929;28;20047;-70
2023/02/13 00:08:10;;;;;;;63.50;32.55;;;3.50;99.90;;;;;;4955515;28;20045;-70
2023/02/13 00:10:38;;;;;;;61.95;32.63;;;3.40;99.90;;;;;;4937485;28;20406;-70
2023/02/13 00:13:05;;;;;;;57.35;32.15;;;3.40;99.90;;;;;;4955718;28;20046;-70
2023/02/13 00:15:32;;;;;;;59.08;33.20;;;3.30;99.90;;;;;;4971229;28;20122;-69
2023/02/13 00:18:02;;;;;;;56.42;31.33;;;3.50;99.90;;;;;;4972270;28;20055;-73
2023/02/13 00:20:29;;;;;;;58.63;32.83;;;3.50;99.90;;;;;;4963370;28;20034;-70
2023/02/13 00:22:58;;;;;;;58.47;33.30;;;3.50;99.90;;;;;;4972322;28;20050;-69
2023/02/13 00:25:26;;;;;;;57.38;30.92;;;3.60;99.90;;;;;;4954911;28;20045;-70
2023/02/13 00:27:53;;;;;;;56.95;31.08;;;3.60;99.90;;;;;;4955255;28;20402;-70
2023/02/13 00:30:21;;;;;;;57.95;32.05;;;3.50;99.90;;;;;;4947737;28;20042;-71
2023/02/13 00:32:48;;;;;;;61.65;33.13;;;3.50;99.90;;;;;;4954984;28;20058;-69
2023/02/13 00:35:16;;;;;;;55.63;30.77;;;3.50;99.90;;;;;;4970448;28;20070;-70
2023/02/13 00:37:43;;;;;;;52.72;32.55;;;3.50;99.90;;;;;;4971920;28;20543;-68
2023/02/13 00:40:11;;;;;;;61.58;32.05;;;3.60;99.90;;;;;;4953543;28;20043;-69
2023/02/13 00:42:38;;;;;;;57.28;31.38;;;3.50;99.90;;;;;;4949345;29;20054;-72
2023/02/13 00:45:06;;;;;;;56.85;32.00;;;3.40;99.90;;;;;;4954177;28;20047;-69
2023/02/13 00:47:33;;;;;;;52.85;30.95;;;3.50;99.90;;;;;;4954824;28;20046;-68
2023/02/13 00:50:00;;;;;;;59.53;31.55;;;3.60;99.90;;;;;;4972083;28;20130;-70
2023/02/13 00:52:28;;;;;;;55.25;30.17;;;3.60;99.90;;;;;;4970718;28;20046;-68
2023/02/13 00:54:55;;;;;;;56.80;32.30;;;3.60;99.90;;;;;;4938449;28;20097;-69
2023/02/13 00:57:22;;;;;;;61.47;32.47;;;3.60;99.90;;;;;;4969682;28;20042;-68
2023/02/13 00:59:50;;;;;;;58.97;30.00;;;3.30;99.90;;;;;;4952594;28;20050;-70
2023/02/13 01:02:17;;;;;;;57.63;32.63;;;3.40;99.90;;;;;;4970336;28;20050;-69
2023/02/13 01:04:45;;;;;;;52.60;31.85;;;3.40;99.90;;;;;;4971836;28;20035;-70
2023/02/13 01:07:12;;;;;;;63.95;32.38;;;3.50;99.90;;;;;;4971314;28;20053;-70
2023/02/13 01:09:42;;;;;;;63.17;31.17;;;3.50;99.90;;;;;;4971827;28;20047;-69
2023/02/13 01:12:10;;;;;;;52.22;31.40;;;3.50;99.90;;;;;;4969135;28;20031;-68
2023/02/13 01:14:37;;;;;;;60.75;31.88;;;3.40;99.90;;;;;;4954630;28;20051;-68
2023/02/13 01:17:04;;;;;;;51.42;30.35;;;3.30;99.90;;;;;;4967070;28;20051;-68
2023/02/13 01:19:32;;;;;;;53.50;30.90;;;3.40;99.90;;;;;;4954524;28;20042;-70
2023/02/13 01:21:59;;;;;;;55.38;31.00;;;3.40;99.90;;;;;;4971146;28;20046;-69
2023/02/13 01:24:28;;;;;;;53.00;29.60;;;3.40;99.90;;;;;;4971108;28;20086;-70
2023/02/13 01:26:56;;;;;;;48.47;29.13;;;3.40;99.90;;;;;;4971508;28;20043;-69
2023/02/13 01:29:23;;;;;;;54.20;30.75;;;3.60;99.90;;;;;;4954181;28;20050;-71
2023/02/13 01:31:50;;;;;;;55.05;30.70;;;3.60;99.90;;;;;;4971581;28;20042;-70
2023/02/13 01:34:18;;;;;;;55.13;30.83;;;3.60;99.90;;;;;;4971811;28;20046;-70
2023/02/13 01:36:45;;;;;;;51.80;31.33;;;3.50;99.90;;;;;;4971785;28;20077;-70
2023/02/13 01:39:12;;;;;;;55.75;31.65;;;3.40;99.90;;;;;;4941862;28;20497;-70
2023/02/13 01:41:40;;;;;;;62.58;32.63;;;3.40;99.90;;;;;;4969843;28;20050;-70
2023/02/13 01:44:44;;;;;;;56.20;31.20;;;3.40;99.90;;;;;;4943016;28;20049;-71
2023/02/13 01:47:14;;;;;;;69.75;35.05;;;3.40;99.90;;;;;;4971350;28;20126;-71
2023/02/13 01:49:46;;;;;;;62.33;32.47;;;3.50;99.90;;;;;;4943870;28;20043;-72
2023/02/13 01:52:15;;;;;;;60.83;32.47;;;3.50;99.90;;;;;;4953024;28;20047;-71
2023/02/13 01:54:43;;;;;;;58.17;32.85;;;3.50;99.90;;;;;;4949612;28;20407;-71
2023/02/13 01:57:17;;;;;;;68.70;35.45;;;3.50;99.90;;;;;;4971697;28;20051;-71
2023/02/13 01:59:51;;;;;;;58.17;33.60;;;3.40;99.90;;;;;;4953754;28;20031;-71
2023/02/13 02:02:19;;;;;;;69.68;33.15;;;3.30;99.90;;;;;;4971737;28;20065;-70
2023/02/13 02:04:48;;;;;;;61.97;32.42;;;3.40;99.90;;;;;;4975601;28;20039;-71
2023/02/13 02:07:29;;;;;;;61.70;33.00;;;3.50;99.90;;;;;;4962519;28;20066;-70
2023/02/13 02:10:01;;;;;;;64.68;33.47;;;3.40;99.90;;;;;;4975143;28;20061;-72
2023/02/13 02:12:44;;;;;;;58.13;33.42;;;3.40;99.90;;;;;;4974869;28;20529;-71
2023/02/13 02:15:12;;;;;;;65.78;34.58;;;3.40;99.90;;;;;;4963478;23;20043;-70
2023/02/13 02:17:40;;;;;;;67.43;36.65;;;3.40;99.90;;;;;;4958213;28;20062;-72
2023/02/13 02:20:19;;;;;;;63.97;34.53;;;3.40;99.90;;;;;;4957477;28;20035;-72
2023/02/13 02:23:05;;;;;;;61.65;35.15;;;3.40;99.90;;;;;;4975135;28;20054;-70
2023/02/13 02:25:42;;;;;;;60.10;33.70;;;3.40;99.90;;;;;;4943292;29;20043;-72
2023/02/13 02:28:10;;;;;;;59.80;35.22;;;3.40;99.90;;;;;;4953869;28;20042;-70
2023/02/13 02:30:48;;;;;;;60.20;35.15;;;3.10;99.90;;;;;;4975319;28;20436;-71
2023/02/13 02:33:32;;;;;;;59.45;33.95;;;3.10;99.90;;;;;;4957408;28;20051;-71
2023/02/13 02:36:13;;;;;;;64.07;36.08;;;3.20;99.90;;;;;;4974869;28;20043;-71
2023/02/13 02:39:03;;;;;;;65.88;35.33;;;3.30;99.90;;;;;;4941444;28;20046;-71
2023/02/13 02:41:45;;;;;;;70.57;35.72;;;3.30;99.90;;;;;;4974889;28;20054;-70
2023/02/13 02:44:32;;;;;;;63.30;34.78;;;3.20;99.90;;;;;;4946276;28;20046;-70
2023/02/13 02:50:42;;;;;;;64.00;34.17;;;3.30;99.90;;;;;;4945113;28;20038;-71
2023/02/13 02:53:17;;;;;;;70.43;34.50;;;3.40;99.90;;;;;;4957340;28;20058;-72
2023/02/13 02:56:00;;;;;;;63.33;35.97;;;3.30;99.90;;;;;;4974575;28;20395;-72
2023/02/13 03:07:17;;;;;;;56.05;32.33;;;3.10;99.90;;;;;;4974208;28;20434;-70
2023/02/13 03:22:17;;;;;;;57.67;32.65;;;3.00;99.90;;;;;;4955102;28;20419;-69
2023/02/13 03:24:52;;;;;;;63.50;33.40;;;3.00;99.90;;;;;;4967016;28;20368;-71
2023/02/13 03:30:52;;;;;;;61.80;33.78;;;3.00;99.90;;;;;;4922451;29;20047;-69
2023/02/13 03:33:40;;;;;;;68.70;34.08;;;2.90;99.90;;;;;;4955064;28;20047;-70
2023/02/13 03:39:46;;;;;;;61.95;32.42;;;3.10;99.90;;;;;;4964537;28;20054;-71
2023/02/13 03:42:25;;;;;;;65.40;34.25;;;3.20;99.90;;;;;;4948242;28;20031;-70
2023/02/13 03:47:56;;;;;;;61.40;34.35;;;2.90;99.90;;;;;;4973753;28;20047;-70
2023/02/13 03:50:26;;;;;;;60.03;32.78;;;3.00;99.90;;;;;;4973293;28;20113;-71
2023/02/13 03:53:00;;;;;;;;;;;3.10;99.90;;;;;;4968785;28;20049;-69
2023/02/13 04:01:31;;;;;;;64.05;34.25;;;2.90;99.90;;;;;;4956139;28;20046;-71
2023/02/13 04:04:10;;;;;;;65.97;33.33;;;2.90;99.90;;;;;;4955996;28;20061;-70
2023/02/13 04:06:51;;;;;;;59.47;34.10;;;2.80;99.90;;;;;;4973524;28;20502;-69
2023/02/13 04:09:18;;;;;;;64.88;34.97;;;3.00;99.90;;;;;;4943348;28;20050;-70
2023/02/13 04:11:54;;;;;;;62.20;35.92;;;3.00;99.90;;;;;;4973365;28;20042;-71
2023/02/13 04:14:21;;;;;;;62.90;33.30;;;3.10;99.90;;;;;;4955416;28;20097;-72
2023/02/13 04:17:05;;;;;;;61.42;35.33;;;3.00;99.90;;;;;;4970460;28;20054;-71
2023/02/13 04:19:32;;;;;;;64.72;34.85;;;2.90;99.90;;;;;;4931345;28;20043;-68
2023/02/13 04:22:01;;;;;;;66.18;34.63;;;2.80;99.90;;;;;;4936012;29;20601;-70
2023/02/13 04:24:28;;;;;;;66.85;35.53;;;2.80;99.90;;;;;;4966013;28;20054;-70
2023/02/13 04:26:56;;;;;;;69.20;36.10;;;2.80;99.90;;;;;;4972282;28;20050;-71
2023/02/13 04:29:25;;;;;;;64.32;34.47;;;2.70;99.90;;;;;;4972537;28;20418;-71
2023/02/13 04:31:52;;;;;;;66.00;33.78;;;2.70;99.90;;;;;;4960609;28;20041;-70
2023/02/13 04:34:20;;;;;;;70.10;37.08;;;2.70;99.90;;;;;;4971761;28;20423;-71
2023/02/13 04:36:48;;;;;;;65.55;35.50;;;2.80;99.90;;;;;;4945772;28;20395;-70
2023/02/13 04:39:15;;;;;;;63.60;36.33;;;2.80;99.90;;;;;;4972729;28;20038;-70
2023/02/13 04:41:42;;;;;;;70.88;36.33;;;2.70;99.90;;;;;;4972407;28;20657;-71
2023/02/13 04:44:09;;;;;;;65.13;35.20;;;2.60;99.90;;;;;;4972546;28;20049;-69
2023/02/13 04:46:37;;;;;;;63.25;36.38;;;2.40;99.90;;;;;;4955012;28;20053;-70
2023/02/13 04:49:04;;;;;;;74.68;38.25;;;2.30;99.90;;;;;;4971871;28;20047;-70
2023/02/13 04:51:31;;;;;;;70.50;35.88;;;2.30;99.90;;;;;;4972253;28;20042;-70
2023/02/13 04:53:59;;;;;;;63.90;36.03;;;2.10;99.90;;;;;;4939767;28;20504;-70
2023/02/13 04:56:26;;;;;;;69.93;36.40;;;2.00;99.90;;;;;;4958357;28;20051;-69
2023/02/13 04:58:54;;;;;;;68.28;35.90;;;2.10;99.90;;;;;;4972273;28;20050;-70
2023/02/13 05:01:22;;;;;;;66.97;37.47;;;2.00;99.90;;;;;;4955045;28;20054;-70
2023/02/13 05:03:49;;;;;;;67.55;34.58;;;2.10;99.90;;;;;;4971962;28;20188;-68
2023/02/13 05:06:16;;;;;;;66.97;36.08;;;1.90;99.90;;;;;;4959139;23;20062;-71
2023/02/13 05:08:44;;;;;;;67.53;35.53;;;1.90;99.90;;;;;;4952929;29;20034;-72
2023/02/13 05:11:11;;;;;;;68.25;36.50;;;1.90;99.90;;;;;;4948712;29;20047;-70
2023/02/13 05:13:38;;;;;;;68.03;36.40;;;1.90;99.90;;;;;;4948393;29;20054;-70
2023/02/13 05:16:08;;;;;;;68.28;36.95;;;2.00;99.90;;;;;;4946632;28;20468;-71
2023/02/13 05:18:36;;;;;;;67.15;35.55;;;2.00;99.90;;;;;;4948650;29;20051;-70
2023/02/13 05:23:49;;;;;;;71.50;36.88;;;2.00;99.90;;;;;;4951698;29;20062;-71
2023/02/13 05:26:17;;;;;;;67.38;38.03;;;2.00;99.90;;;;;;4952662;29;20049;-69
2023/02/13 05:31:32;;;;;;;68.95;36.10;;;1.90;99.90;;;;;;4950150;29;20390;-70
2023/02/13 05:34:00;;;;;;;69.25;37.85;;;1.80;99.90;;;;;;4952991;28;20402;-71
2023/02/13 05:36:27;;;;;;;67.15;38.05;;;2.00;99.90;;;;;;4926336;29;20099;-69
2023/02/13 05:38:54;;;;;;;66.53;37.72;;;2.00;99.90;;;;;;4964935;28;20040;-70
2023/02/13 05:41:22;;;;;;;62.15;35.70;;;2.00;99.90;;;;;;4948115;29;20090;-70
2023/02/13 05:43:49;;;;;;;77.07;37.83;;;2.00;99.90;;;;;;4956181;28;20053;-70
2023/02/13 05:46:16;;;;;;;66.35;34.95;;;2.00;99.90;;;;;;4956143;29;20035;-71
2023/02/13 05:48:43;;;;;;;70.43;37.05;;;2.10;99.90;;;;;;4936223;29;20051;-70
2023/02/13 05:51:11;;;;;;;64.20;34.90;;;2.10;99.90;;;;;;4950607;29;20047;-70
2023/02/13 05:53:38;;;;;;;71.30;37.50;;;2.10;99.90;;;;;;4955378;28;20086;-68
2023/02/13 05:56:06;;;;;;;70.70;39.30;;;2.10;99.90;;;;;;4952132;29;20047;-71
2023/02/13 05:58:36;;;;;;;96.97;46.92;;;2.10;99.90;;;;;;4942685;29;20407;-69
2023/02/13 06:01:03;;;;;;;78.32;43.28;;;2.10;99.90;;;;;;4928372;29;20154;-67
2023/02/13 06:03:31;;;;;;;97.53;48.80;;;2.10;99.90;;;;;;4948649;29;20066;-69
2023/02/13 06:05:59;;;;;;;80.80;44.63;;;2.20;99.90;;;;;;4947676;29;20074;-68
2023/02/13 06:08:27;;;;;;;93.03;44.88;;;2.20;99.90;;;;;;4936513;29;20039;-67
2023/02/13 06:10:54;;;;;;;157.25;72.80;;;2.20;99.90;;;;;;4936721;28;20452;-69
2023/02/13 06:13:22;;;;;;;75.13;41.63;;;2.30;99.90;;;;;;4943525;29;20385;-69
2023/02/13 06:15:49;;;;;;;76.22;39.65;;;2.20;99.90;;;;;;4946245;29;20043;-68
2023/02/13 06:18:17;;;;;;;73.18;39.47;;;2.20;99.90;;;;;;4945327;29;20040;-70
2023/02/13 06:20:44;;;;;;;68.32;37.35;;;2.10;99.90;;;;;;4965965;28;20388;-67
2023/02/13 06:23:12;;;;;;;67.00;37.13;;;2.20;99.90;;;;;;4946931;29;20453;-68
2023/02/13 06:25:39;;;;;;;66.60;37.15;;;2.10;99.90;;;;;;4951162;29;20039;-68
2023/02/13 06:28:07;;;;;;;70.63;38.38;;;2.10;99.90;;;;;;4940700;29;20400;-69
2023/02/13 06:30:34;;;;;;;63.15;37.80;;;2.20;99.90;;;;;;4949646;29;20039;-68
2023/02/13 06:33:05;;;;;;;77.20;42.55;;;2.30;99.90;;;;;;4943827;29;20098;-70
2023/02/13 06:35:53;;;;;;;72.63;40.25;;;2.50;99.90;;;;;;4937610;29;20098;-69
2023/02/13 06:38:23;;;;;;;69.93;38.88;;;2.60;99.90;;;;;;4922342;29;20107;-69
2023/02/13 06:40:50;;;;;;;72.22;40.33;;;2.50;99.90;;;;;;4945242;29;20044;-71
2023/02/13 06:43:18;;;;;;;73.13;41.40;;;2.50;99.90;;;;;;4935740;29;20499;-70
2023/02/13 06:45:46;;;;;;;80.45;41.55;;;2.40;99.90;;;;;;4908494;29;20043;-70
2023/02/13 06:48:14;;;;;;;78.35;43.30;;;2.50;99.90;;;;;;4948445;29;20051;-70
2023/02/13 06:50:41;;;;;;;74.35;42.22;;;2.50;99.90;;;;;;4936890;29;20040;-70
2023/02/13 06:53:08;;;;;;;85.32;43.10;;;2.60;99.90;;;;;;4935338;29;20067;-70
2023/02/13 06:55:38;;;;;;;88.25;47.13;;;2.70;99.90;;;;;;4936681;29;20039;-70
2023/02/13 06:58:05;;;;;;;86.90;45.42;;;2.70;99.90;;;;;;4919036;29;20138;-68
2023/02/13 07:00:33;;;;;;;109.85;53.70;;;2.90;99.90;;;;;;4937117;29;20051;-69
2023/02/13 07:03:05;;;;;;;89.30;46.55;;;3.10;99.90;;;;;;4943450;28;20782;-68
2023/02/13 07:05:32;;;;;;;81.40;44.60;;;3.10;99.90;;;;;;4924565;29;20043;-70
2023/02/13 07:08:00;;;;;;;78.05;40.97;;;3.10;99.90;;;;;;4948525;28;20051;-70
2023/02/13 07:10:27;;;;;;;80.95;40.95;;;3.10;99.90;;;;;;4939539;29;20040;-70
2023/02/13 07:12:55;;;;;;;80.82;43.80;;;3.10;99.90;;;;;;4936230;29;20059;-69
2023/02/13 07:15:35;;;;;;;71.97;40.90;;;3.10;99.90;;;;;;4936616;29;20039;-70
2023/02/13 07:18:03;;;;;;;80.88;43.42;;;3.30;99.90;;;;;;4939497;29;20040;-70
2023/02/13 07:20:33;;;;;;;79.03;43.17;;;3.30;99.90;;;;;;4934218;28;20571;-70
2023/02/13 07:23:02;;;;;;;81.90;42.58;;;3.20;99.90;;;;;;4936629;29;20050;-70
2023/02/13 07:25:30;;;;;;;68.85;40.03;;;3.20;99.90;;;;;;4926248;29;20044;-70
2023/02/13 07:28:02;;;;;;;84.95;43.45;;;3.20;99.90;;;;;;4932984;29;20062;-69
2023/02/13 07:30:31;;;;;;;71.50;39.22;;;3.30;99.90;;;;;;4933604;29;20042;-70
2023/02/13 07:33:02;;;;;;;73.45;39.25;;;3.30;99.90;;;;;;4934860;29;20043;-70
2023/02/13 07:35:30;;;;;;;69.75;38.05;;;3.40;99.90;;;;;;4937679;29;20050;-71
2023/02/13 07:37:59;;;;;;;78.30;40.13;;;3.50;99.90;;;;;;4950321;28;20039;-70
2023/02/13 07:40:27;;;;;;;77.30;41.22;;;3.70;99.90;;;;;;4935644;29;20043;-69
2023/02/13 07:42:55;;;;;;;74.03;39.75;;;4.00;99.90;;;;;;4934455;29;20050;-70
2023/02/13 07:45:22;;;;;;;67.78;35.92;;;4.00;99.90;;;;;;4952301;29;20063;-71
2023/02/13 07:47:50;;;;;;;64.53;36.80;;;4.10;99.90;;;;;;4944034;28;20043;-69
2023/02/13 07:50:17;;;;;;;73.03;37.03;;;4.20;99.90;;;;;;4936137;29;20035;-70
2023/02/13 07:52:51;;;;;;;65.72;36.80;;;4.20;99.90;;;;;;4947152;29;20051;-69
2023/02/13 07:55:18;;;;;;;67.80;37.70;;;4.30;99.90;;;;;;4929640;29;20399;-69
2023/02/13 07:57:45;;;;;;;71.43;38.95;;;4.30;99.90;;;;;;4940932;29;20579;-68
2023/02/13 08:00:13;;;;;;;69.80;40.08;;;4.30;99.90;;;;;;4945798;29;20059;-70
2023/02/13 08:02:54;;;;;;;74.43;41.80;;;4.40;99.90;;;;;;4944499;28;20035;-69
2023/02/13 08:05:24;;;;;;;74.18;40.90;;;4.60;99.90;;;;;;4931357;29;20062;-69
2023/02/13 08:07:52;;;;;;;69.15;40.10;;;4.50;99.90;;;;;;4944225;29;20047;-69
2023/02/13 08:13:07;;;;;;;69.95;39.20;;;4.70;99.90;;;;;;4943611;29;20036;-69
2023/02/13 08:15:34;;;;;;;75.10;42.85;;;4.90;99.90;;;;;;4940812;29;20053;-69
2023/02/13 08:18:02;;;;;;;76.97;42.08;;;5.10;99.90;;;;;;4948731;29;20048;-70
2023/02/13 08:20:30;;;;;;;76.95;45.60;;;5.20;99.90;;;;;;4945288;29;20039;-69
2023/02/13 08:23:09;;;;;;;82.25;46.40;;;5.40;99.90;;;;;;4942398;29;20415;-67
2023/02/13 08:25:39;;;;;;;72.15;44.78;;;5.50;99.90;;;;;;4935007;29;20131;-68
2023/02/13 08:28:07;;;;;;;76.82;45.63;;;5.50;99.90;;;;;;4944557;29;20432;-69
2023/02/13 08:30:34;;;;;;;73.65;44.13;;;5.80;99.90;;;;;;4932855;29;20428;-70
2023/02/13 08:33:01;;;;;;;70.97;42.63;;;5.90;99.90;;;;;;4942504;29;20070;-69
2023/02/13 08:35:30;;;;;;;68.35;41.00;;;5.90;99.90;;;;;;4947977;29;20056;-70
2023/02/13 08:38:04;;;;;;;67.82;38.95;;;6.10;99.90;;;;;;4948448;29;20122;-70
2023/02/13 08:40:31;;;;;;;72.43;39.42;;;6.20;99.90;;;;;;4942581;29;20051;-71
2023/02/13 08:43:01;;;;;;;62.85;37.58;;;6.20;99.90;;;;;;4948596;29;20505;-70
2023/02/13 08:45:28;;;;;;;60.70;34.67;;;6.30;99.90;;;;;;4945331;28;20408;-70
2023/02/13 08:47:57;;;;;;;63.05;35.10;;;6.60;99.90;;;;;;4943966;28;20404;-68
2023/02/13 08:50:26;;;;;;;59.95;35.63;;;6.80;99.90;;;;;;4932970;29;20121;-69
2023/02/13 08:52:53;;;;;;;58.47;36.45;;;6.70;99.90;;;;;;4947258;29;20039;-69
2023/02/13 08:55:21;;;;;;;59.00;34.97;;;6.70;99.90;;;;;;4942916;29;20452;-70
2023/02/13 08:57:48;;;;;;;53.03;31.77;;;6.90;99.90;;;;;;4945632;29;20043;-71
2023/02/13 09:00:15;;;;;;;52.53;30.55;;;6.90;99.90;;;;;;4946438;29;20047;-70
2023/02/13 09:02:43;;;;;;;51.45;30.90;;;6.80;99.90;;;;;;4944027;29;20051;-68
2023/02/13 09:05:10;;;;;;;51.03;30.25;;;6.80;99.90;;;;;;4933962;29;20502;-69
2023/02/13 09:07:37;;;;;;;51.65;28.90;;;7.10;99.90;;;;;;4945066;29;20465;-68
2023/02/13 09:10:05;;;;;;;46.72;28.20;;;7.20;99.90;;;;;;4943362;28;20061;-69
2023/02/13 09:12:32;;;;;;;44.50;27.70;;;7.40;99.90;;;;;;4942258;29;20036;-70
2023/02/13 09:15:00;;;;;;;43.83;25.80;;;7.40;99.10;;;;;;4938686;29;20032;-70
2023/02/13 09:17:28;;;;;;;45.47;26.00;;;7.40;98.60;;;;;;4942729;29;20036;-68
2023/02/13 09:19:55;;;;;;;43.03;28.05;;;7.70;98.50;;;;;;4941989;29;20048;-69
2023/02/13 09:22:22;;;;;;;45.10;27.60;;;7.80;98.00;;;;;;4944450;29;20047;-67
2023/02/13 09:24:49;;;;;;;50.08;27.65;;;8.00;97.30;;;;;;4939637;28;20055;-70
2023/02/13 09:27:17;;;;;;;46.42;28.17;;;8.10;96.70;;;;;;4937719;29;20511;-70
2023/02/13 09:29:44;;;;;;;50.25;26.90;;;8.30;96.70;;;;;;4942169;29;20043;-69
2023/02/13 09:32:11;;;;;;;42.28;27.05;;;8.30;95.40;;;;;;4933419;29;20039;-71
2023/02/13 09:34:39;;;;;;;45.15;27.23;;;8.30;94.90;;;;;;4941271;29;20043;-70
2023/02/13 09:37:14;;;;;;;41.95;26.88;;;8.40;94.70;;;;;;4930005;29;20161;-69
2023/02/13 09:39:43;;;;;;;42.92;25.58;;;8.60;94.70;;;;;;4945767;29;20404;-72
2023/02/13 09:42:23;;;;;;;43.22;25.02;;;8.70;93.50;;;;;;4928217;29;20048;-70
2023/02/13 09:44:54;;;;;;;45.72;26.58;;;8.80;93.10;;;;;;4945781;29;20043;-69
2023/02/13 09:47:21;;;;;;;;;;;9.00;93.00;;;;;;4947580;29;20043;-70
2023/02/13 09:49:54;;;;;;;39.88;23.75;;;9.30;92.10;;;;;;4947706;29;20299;-69
2023/02/13 09:52:25;;;;;;;38.60;24.40;;;9.50;91.40;;;;;;4945008;29;20058;-67
2023/02/13 09:54:52;;;;;;;;;;;9.50;90.10;;;;;;4946216;28;20130;-67
2023/02/13 09:57:36;;;;;;;41.22;23.65;;;9.20;89.00;;;;;;4937353;29;19922;-69
2023/02/13 10:00:16;;;;;;;41.90;23.90;;;9.30;89.50;;;;;;4940046;28;20044;-68
2023/02/13 10:02:58;;;;;;;37.40;23.70;;;9.70;88.40;;;;;;4936697;29;20070;-70
2023/02/13 10:05:50;;;;;;;36.58;23.13;;;9.90;87.40;;;;;;4946326;28;20055;-69
2023/02/13 10:08:57;;;;;;;39.88;24.15;;;10.00;85.30;;;;;;4954249;28;20062;-66
2023/02/13 10:12:02;;;;;;;44.90;25.65;;;9.60;83.90;;;;;;4936890;28;20070;-68
2023/02/13 10:14:41;;;;;;;41.70;25.27;;;9.80;84.70;;;;;;4957749;28;20114;-69
2023/02/13 10:17:20;;;;;;;41.25;24.80;;;10.10;84.30;;;;;;4969271;28;20031;-70
2023/02/13 10:19:54;;;;;;;38.47;24.65;;;10.50;83.50;;;;;;4967417;28;20125;-68
2023/02/13 10:22:41;;;;;;;39.17;24.80;;;10.70;81.40;;;;;;4961895;28;20523;-69
2023/02/13 10:25:21;;;;;;;41.85;24.52;;;10.80;80.40;;;;;;4962305;28;20039;-67
2023/02/13 10:28:12;;;;;;;39.92;25.35;;;10.90;79.50;;;;;;4935949;28;20471;-67
2023/02/13 10:31:06;;;;;;;37.80;22.15;;;10.80;78.00;;;;;;4969951;28;20038;-71
2023/02/13 10:33:51;;;;;;;35.30;22.65;;;10.70;77.30;;;;;;4945165;28;20640;-67
2023/02/13 10:36:23;;;;;;;39.03;24.35;;;10.80;77.50;;;;;;4950989;29;20039;-70
2023/02/13 10:39:01;;;;;;;39.72;23.73;;;10.90;76.90;;;;;;4941621;28;20173;-70
2023/02/13 10:42:07;;;;;;;36.83;22.40;;;11.20;75.10;;;;;;4954560;28;20134;-71
2023/02/13 10:45:05;;;;;;;37.22;22.70;;;11.30;74.40;;;;;;4940565;29;20130;-68
2023/02/13 10:48:01;;;;;;;37.38;23.70;;;11.60;73.90;;;;;;4954284;28;20035;-71
2023/02/13 10:50:55;;;;;;;41.72;23.65;;;11.60;72.40;;;;;;4959359;28;20114;-70
2023/02/13 10:53:40;;;;;;;34.60;21.75;;;11.50;71.90;;;;;;4940742;29;20417;-69
2023/02/13 10:56:27;;;;;;;37.85;23.60;;;11.70;72.40;;;;;;4940123;28;20047;-68
2023/02/13 10:59:22;;;;;;;37.75;22.38;;;12.10;72.00;;;;;;4953858;28;20051;-69
2023/02/13 11:01:56;;;;;;;39.30;22.75;;;11.70;69.90;;;;;;4942849;29;20484;-69
2023/02/13 11:04:23;;;;;;;37.72;23.80;;;12.00;71.40;;;;;;4942939;28;20145;-70
2023/02/13 11:06:59;;;;;;;36.90;22.20;;;12.50;69.80;;;;;;4974323;28;20391;-71
2023/02/13 11:09:27;;;;;;;37.00;23.45;;;12.30;69.70;;;;;;4933913;28;20142;-70
2023/02/13 11:11:54;;;;;;;31.45;21.85;;;12.50;68.60;;;;;;4968857;28;20043;-69
2023/02/13 11:14:25;;;;;;;34.55;22.27;;;13.40;67.00;;;;;;4963064;28;20039;-70
2023/02/13 11:16:54;;;;;;;34.67;22.85;;;13.80;64.20;;;;;;4960653;28;20116;-72
2023/02/13 11:19:30;;;;;;;33.08;23.55;;;14.90;60.50;;;;;;4965814;28;20486;-71
2023/02/13 11:22:05;;;;;;;35.45;23.73;;;16.10;56.90;;;;;;4932801;28;20134;-68
2023/02/13 11:24:33;;;;;;;33.95;24.20;;;16.50;55.70;;;;;;4946352;28;20042;-70
2023/02/13 11:27:12;;;;;;;30.83;22.67;;;17.00;54.30;;;;;;4964980;28;20157;-71
2023/02/13 11:29:57;;;;;;;31.60;22.40;;;18.00;52.80;;;;;;4964973;28;20045;-70
2023/02/13 11:32:30;;;;;;;32.25;21.45;;;19.40;50.00;;;;;;4960540;28;20551;-71
2023/02/13 11:35:18;;;;;;;34.90;21.58;;;20.40;48.60;;;;;;4964160;28;20043;-69
2023/02/13 11:37:46;;;;;;;31.73;20.48;;;19.90;47.80;;;;;;4970637;28;20047;-68
2023/02/13 11:40:30;;;;;;;31.95;20.83;;;19.30;50.20;;;;;;4964378;28;20484;-70
2023/02/13 11:42:57;;;;;;;33.33;21.42;;;17.90;51.30;;;;;;4954827;28;20459;-69
2023/02/13 11:45:25;;;;;;;32.30;21.80;;;15.20;56.00;;;;;;4951476;28;20515;-68
2023/02/13 11:47:55;;;;;;;30.17;19.85;;;13.70;59.80;;;;;;4969560;28;20109;-71
2023/02/13 11:50:39;;;;;;;28.90;19.70;;;14.60;63.30;;;;;;4963480;28;20051;-72
2023/02/13 11:53:22;;;;;;;28.67;18.85;;;15.20;58.40;;;;;;4936545;29;20066;-72
2023/02/13 11:56:04;;;;;;;29.75;19.80;;;15.40;58.60;;;;;;4943324;28;20102;-69
2023/02/13 11:58:32;;;;;;;34.67;19.80;;;15.80;58.00;;;;;;4951699;28;20412;-70
2023/02/13 12:01:28;;;;;;;28.55;18.73;;;16.20;59.20;;;;;;4936789;29;20507;-71
2023/02/13 12:04:17;;;;;;;26.10;17.63;;;16.60;57.70;;;;;;4936304;28;20051;-71
2023/02/13 12:07:00;;;;;;;35.30;19.38;;;16.10;55.10;;;;;;4953979;28;20640;-69
2023/02/13 12:09:29;;;;;;;33.20;19.85;;;15.40;57.60;;;;;;4953679;28;20114;-72
2023/02/13 12:12:01;;;;;;;32.58;19.15;;;15.50;57.70;;;;;;4953292;28;20043;-71
2023/02/13 12:14:42;;;;;;;30.45;18.20;;;15.40;56.60;;;;;;4929640;28;20046;-72
2023/02/13 12:17:20;;;;;;;27.23;19.13;;;15.30;56.10;;;;;;4961341;28;20065;-72
2023/02/13 12:19:59;;;;;;;29.38;18.63;;;15.80;56.90;;;;;;4965648;28;20043;-70
2023/02/13 12:22:56;;;;;;;33.33;18.65;;;16.10;55.60;;;;;;4935946;29;20043;-70
2023/02/13 12:25:46;;;;;;;29.80;18.63;;;17.80;55.00;;;;;;4965485;28;20036;-71
2023/02/13 12:28:26;;;;;;;31.60;18.38;;;21.70;49.80;;;;;;4955430;28;20058;-73
2023/02/13 12:31:08;;;;;;;28.30;18.83;;;22.30;45.60;;;;;;4942737;29;20098;-68
2023/02/13 12:33:41;;;;;;;27.17;18.60;;;23.10;44.30;;;;;;4941219;28;20290;-72
2023/02/13 12:36:19;;;;;;;26.63;19.33;;;23.50;43.70;;;;;;4953265;28;20403;-70
2023/02/13 12:39:02;;;;;;;27.67;19.70;;;22.70;43.70;;;;;;4953203;28;20039;-69
2023/02/13 12:41:44;;;;;;;27.67;19.30;;;23.30;43.40;;;;;;4958893;28;20043;-71
2023/02/13 12:44:21;;;;;;;29.30;20.27;;;24.60;42.50;;;;;;4956496;28;20047;-71
2023/02/13 12:47:04;;;;;;;27.15;19.65;;;23.00;42.50;;;;;;4956301;28;20038;-72
2023/02/13 12:50:03;;;;;;;27.23;20.20;;;22.50;43.00;;;;;;4953409;28;20043;-71
2023/02/13 12:52:45;;;;;;;26.17;20.10;;;22.10;43.00;;;;;;4957173;28;20110;-72
2023/02/13 12:55:19;;;;;;;26.85;19.75;;;21.70;43.50;;;;;;4930729;29;20074;-70
2023/02/13 12:58:25;;;;;;;26.25;20.35;;;22.40;43.70;;;;;;4944841;28;20051;-72
2023/02/13 13:01:06;;;;;;;27.10;21.05;;;22.40;42.20;;;;;;4959754;28;20082;-73
2023/02/13 13:04:12;;;;;;;23.67;18.88;;;22.90;41.90;;;;;;4960033;28;20097;-72
2023/02/13 13:06:42;;;;;;;22.63;18.15;;;23.80;40.40;;;;;;4943898;28;20110;-72
2023/02/13 13:09:15;;;;;;;26.92;20.83;;;25.50;39.40;;;;;;4968889;28;20027;-73
2023/02/13 13:11:54;;;;;;;27.55;20.73;;;24.90;39.70;;;;;;4940020;28;20054;-72
2023/02/13 13:14:31;;;;;;;27.90;20.17;;;24.90;39.60;;;;;;4951133;28;20043;-71
2023/02/13 13:17:31;;;;;;;28.40;20.65;;;23.40;40.70;;;;;;4950724;28;20040;-71
2023/02/13 13:20:13;;;;;;;26.17;21.80;;;24.10;40.30;;;;;;4931646;28;20055;-71
2023/02/13 13:22:55;;;;;;;23.02;18.92;;;24.20;38.80;;;;;;4952342;28;20043;-71
2023/02/13 13:25:41;;;;;;;21.08;16.95;;;24.60;39.00;;;;;;4946672;28;20046;-71
2023/02/13 13:28:18;;;;;;;18.58;15.90;;;24.10;38.40;;;;;;4948956;28;20047;-72
2023/02/13 13:30:46;;;;;;;22.02;17.27;;;24.60;38.80;;;;;;4952957;28;20066;-72
2023/02/13 13:33:18;;;;;;;20.90;17.02;;;25.20;38.30;;;;;;4952132;28;20031;-70
2023/02/13 13:36:06;;;;;;;21.00;16.58;;;24.90;37.90;;;;;;4935881;29;20419;-69
2023/02/13 13:38:52;;;;;;;19.65;15.85;;;25.00;37.50;;;;;;4897997;28;20055;-72
2023/02/13 13:41:34;;;;;;;20.20;16.80;;;24.40;37.60;;;;;;4935616;29;20046;-72
2023/02/13 13:44:21;;;;;;;21.55;17.05;;;24.90;37.80;;;;;;4939314;29;20047;-71
2023/02/13 13:47:01;;;;;;;20.23;16.55;;;24.70;37.70;;;;;;4952631;28;20062;-73
2023/02/13 13:49:29;;;;;;;24.17;16.65;;;24.90;37.90;;;;;;4952375;28;20043;-71
2023/02/13 13:52:24;;;;;;;18.67;15.70;;;24.70;37.80;;;;;;4947666;29;20365;-72
2023/02/13 13:54:52;;;;;;;17.55;13.93;;;24.60;37.80;;;;;;4935490;29;20139;-72